createdAt,value
2019-01-29T00:00:58.745Z,981.42
2019-01-29T00:02:09.704Z,981.48
2019-01-29T00:03:20.664Z,981.47
2019-01-29T00:04:32.620Z,981.50
2019-01-29T00:05:43.585Z,981.48
2019-01-29T00:06:54.544Z,981.55
2019-01-29T00:08:05.507Z,981.48
2019-01-29T00:09:16.470Z,981.48
2019-01-29T00:10:27.440Z,981.48
2019-01-29T00:11:38.398Z,981.51
2019-01-29T00:12:49.363Z,981.49
2019-01-29T00:14:00.330Z,981.55
2019-01-29T00:15:11.288Z,981.52
2019-01-29T00:16:22.253Z,981.56
2019-01-29T00:17:33.215Z,981.55
2019-01-29T00:18:44.182Z,981.52
2019-01-29T00:19:55.331Z,981.49
2019-01-29T00:21:06.277Z,981.53
2019-01-29T00:22:17.232Z,981.53
2019-01-29T00:23:28.187Z,981.48
2019-01-29T00:24:39.143Z,981.53
2019-01-29T00:25:50.094Z,981.50
2019-01-29T00:27:01.066Z,981.50
2019-01-29T00:28:12.129Z,981.54
2019-01-29T00:29:23.074Z,981.54
2019-01-29T00:30:34.031Z,981.57
2019-01-29T00:31:44.992Z,981.58
2019-01-29T00:32:56.140Z,981.50
2019-01-29T00:34:07.087Z,981.50
2019-01-29T00:35:18.032Z,981.51
2019-01-29T00:36:28.990Z,981.56
2019-01-29T00:37:40.940Z,981.57
2019-01-29T00:38:51.890Z,981.63
2019-01-29T00:40:02.847Z,981.63
2019-01-29T00:41:13.797Z,981.63
2019-01-29T00:42:24.749Z,981.59
2019-01-29T00:43:35.703Z,981.63
2019-01-29T00:44:46.664Z,981.62
2019-01-29T00:45:57.617Z,981.67
2019-01-29T00:47:08.571Z,981.65
2019-01-29T00:48:19.529Z,981.65
2019-01-29T00:49:30.477Z,981.60
2019-01-29T00:50:41.427Z,981.64
2019-01-29T00:51:52.386Z,981.59
2019-01-29T00:53:03.340Z,981.64
2019-01-29T00:54:14.319Z,981.62
2019-01-29T00:55:25.273Z,981.66
2019-01-29T00:56:36.222Z,981.64
2019-01-29T00:57:47.178Z,981.70
2019-01-29T00:58:58.127Z,981.69
2019-01-29T01:00:10.081Z,981.65
2019-01-29T01:01:21.032Z,981.67
2019-01-29T01:02:31.984Z,981.67
2019-01-29T01:03:42.992Z,981.69
2019-01-29T01:04:53.945Z,981.64
2019-01-29T01:06:04.905Z,981.65
2019-01-29T01:07:15.861Z,981.64
2019-01-29T01:08:26.829Z,981.67
2019-01-29T01:09:37.769Z,981.73
2019-01-29T01:10:48.724Z,981.74
2019-01-29T01:11:59.749Z,981.82
2019-01-29T01:13:10.690Z,981.87
2019-01-29T01:14:21.648Z,981.80
2019-01-29T01:15:32.602Z,981.83
2019-01-29T01:16:43.562Z,981.90
2019-01-29T01:17:54.519Z,981.92
2019-01-29T01:19:05.633Z,981.88
2019-01-29T01:20:16.585Z,981.90
2019-01-29T01:21:27.545Z,981.85
2019-01-29T01:22:38.481Z,981.95
2019-01-29T01:23:49.445Z,981.90
2019-01-29T01:25:00.394Z,981.94
2019-01-29T01:26:11.344Z,981.91
2019-01-29T01:27:22.313Z,981.96
2019-01-29T01:28:33.267Z,982.01
2019-01-29T01:29:44.249Z,982.00
2019-01-29T01:30:55.198Z,981.98
2019-01-29T01:32:06.150Z,982.07
2019-01-29T01:33:17.103Z,982.05
2019-01-29T01:34:28.057Z,982.06
2019-01-29T01:35:39.009Z,982.00
2019-01-29T01:36:49.961Z,982.06
2019-01-29T01:38:00.904Z,982.03
2019-01-29T01:39:11.854Z,982.04
2019-01-29T01:40:22.812Z,982.06
2019-01-29T01:41:33.763Z,982.10
2019-01-29T01:42:44.711Z,982.11
2019-01-29T01:43:55.657Z,982.06
2019-01-29T01:45:06.613Z,982.06
2019-01-29T01:46:17.576Z,982.06
2019-01-29T01:47:28.533Z,982.08
2019-01-29T01:48:39.638Z,982.00
2019-01-29T01:49:50.582Z,982.06
2019-01-29T01:51:01.535Z,982.00
2019-01-29T01:52:12.480Z,982.02
2019-01-29T01:53:23.460Z,982.05
2019-01-29T01:54:34.411Z,982.10
2019-01-29T01:55:45.354Z,982.07
2019-01-29T01:56:56.760Z,982.08
2019-01-29T01:58:07.705Z,982.09
2019-01-29T01:59:18.654Z,982.05
2019-01-29T02:00:29.608Z,982.16
2019-01-29T02:01:40.562Z,982.11
2019-01-29T02:02:51.511Z,982.03
2019-01-29T02:04:02.459Z,982.07
2019-01-29T02:05:13.407Z,982.09
2019-01-29T02:06:24.350Z,982.10
2019-01-29T02:07:35.294Z,982.05
2019-01-29T02:08:46.244Z,982.05
2019-01-29T02:09:58.185Z,981.98
2019-01-29T02:11:09.127Z,982.05
2019-01-29T02:12:20.072Z,982.03
2019-01-29T02:13:31.018Z,982.03
2019-01-29T02:14:42.960Z,982.03
2019-01-29T02:15:53.910Z,982.04
2019-01-29T02:17:04.847Z,981.97
2019-01-29T02:18:15.888Z,981.98
2019-01-29T02:19:26.834Z,981.97
2019-01-29T02:20:37.778Z,981.96
2019-01-29T02:21:48.715Z,981.97
2019-01-29T02:23:07.535Z,981.99
2019-01-29T02:24:10.617Z,982.01
2019-01-29T02:25:21.562Z,981.99
2019-01-29T02:26:32.512Z,982.02
2019-01-29T02:27:43.460Z,982.07
2019-01-29T02:28:54.402Z,982.08
2019-01-29T02:30:05.369Z,982.15
2019-01-29T02:31:16.311Z,982.19
2019-01-29T02:32:27.265Z,982.16
2019-01-29T02:33:38.210Z,982.22
2019-01-29T02:34:49.162Z,982.19
2019-01-29T02:36:00.099Z,982.22
2019-01-29T02:37:11.041Z,982.24
2019-01-29T02:38:21.999Z,982.22
2019-01-29T02:39:32.942Z,982.26
2019-01-29T02:40:43.895Z,982.26
2019-01-29T02:41:54.852Z,982.23
2019-01-29T02:43:05.790Z,982.26
2019-01-29T02:44:16.736Z,982.34
2019-01-29T02:45:27.682Z,982.37
2019-01-29T02:46:38.627Z,982.36
2019-01-29T02:47:50.574Z,982.37
2019-01-29T02:49:01.515Z,982.40
2019-01-29T02:50:12.659Z,982.33
2019-01-29T02:51:23.619Z,982.41
2019-01-29T02:52:34.553Z,982.45
2019-01-29T02:53:45.493Z,982.53
2019-01-29T02:54:56.429Z,982.51
2019-01-29T02:56:07.378Z,982.49
2019-01-29T02:57:18.329Z,982.55
2019-01-29T02:58:30.275Z,982.58
2019-01-29T02:59:41.214Z,982.58
2019-01-29T03:00:52.167Z,982.58
2019-01-29T03:02:03.127Z,982.57
2019-01-29T03:03:14.079Z,982.58
2019-01-29T03:04:25.017Z,982.62
2019-01-29T03:05:35.966Z,982.59
2019-01-29T03:06:46.911Z,982.60
2019-01-29T03:07:57.855Z,982.59
2019-01-29T03:09:08.792Z,982.61
2019-01-29T03:10:19.731Z,982.61
2019-01-29T03:11:30.672Z,982.64
2019-01-29T03:12:41.623Z,982.62
2019-01-29T03:13:52.553Z,982.65
2019-01-29T03:15:03.487Z,982.71
2019-01-29T03:16:14.439Z,982.72
2019-01-29T03:17:25.379Z,982.68
2019-01-29T03:18:36.322Z,982.69
2019-01-29T03:19:47.271Z,982.72
2019-01-29T03:20:58.217Z,982.71
2019-01-29T03:22:09.154Z,982.72
2019-01-29T03:23:27.344Z,982.72
2019-01-29T03:24:31.025Z,982.80
2019-01-29T03:25:41.981Z,982.80
2019-01-29T03:26:53.922Z,982.78
2019-01-29T03:28:04.863Z,982.89
2019-01-29T03:29:15.806Z,982.88
2019-01-29T03:30:26.758Z,982.89
2019-01-29T03:31:38.710Z,982.97
2019-01-29T03:32:49.649Z,982.94
2019-01-29T03:34:00.586Z,982.94
2019-01-29T03:35:11.530Z,982.98
2019-01-29T03:36:22.629Z,983.04
2019-01-29T03:37:33.576Z,983.02
2019-01-29T03:38:44.529Z,983.01
2019-01-29T03:39:55.465Z,983.06
2019-01-29T03:41:06.415Z,983.04
2019-01-29T03:42:17.354Z,983.11
2019-01-29T03:43:28.295Z,983.12
2019-01-29T03:44:39.235Z,983.17
2019-01-29T03:45:50.174Z,983.19
2019-01-29T03:47:01.131Z,983.16
2019-01-29T03:48:12.073Z,983.22
2019-01-29T03:49:23.015Z,983.24
2019-01-29T03:50:33.963Z,983.31
2019-01-29T03:51:44.907Z,983.31
2019-01-29T03:52:55.849Z,983.30
2019-01-29T03:54:06.790Z,983.28
2019-01-29T03:55:17.734Z,983.31
2019-01-29T03:56:28.699Z,983.27
2019-01-29T03:57:39.648Z,983.30
2019-01-29T03:58:51.589Z,983.35
2019-01-29T04:00:02.532Z,983.36
2019-01-29T04:01:13.473Z,983.32
2019-01-29T04:02:24.728Z,983.30
2019-01-29T04:03:35.763Z,983.37
2019-01-29T04:04:46.601Z,983.40
2019-01-29T04:05:57.544Z,983.43
2019-01-29T04:07:08.533Z,983.49
2019-01-29T04:08:19.468Z,983.51
2019-01-29T04:09:30.412Z,983.50
2019-01-29T04:10:41.349Z,983.43
2019-01-29T04:11:52.299Z,983.45
2019-01-29T04:13:03.247Z,983.43
2019-01-29T04:14:14.188Z,983.43
2019-01-29T04:15:25.132Z,983.49
2019-01-29T04:16:36.073Z,983.51
2019-01-29T04:17:47.021Z,983.51
2019-01-29T04:18:57.966Z,983.50
2019-01-29T04:20:08.901Z,983.52
2019-01-29T04:21:20.150Z,983.54
2019-01-29T04:22:31.105Z,983.62
2019-01-29T04:23:47.738Z,983.57
2019-01-29T04:24:52.997Z,983.59
2019-01-29T04:26:03.938Z,983.57
2019-01-29T04:27:14.921Z,983.57
2019-01-29T04:28:25.850Z,983.57
2019-01-29T04:29:36.797Z,983.58
2019-01-29T04:30:47.747Z,983.54
2019-01-29T04:31:58.687Z,983.57
2019-01-29T04:33:09.636Z,983.59
2019-01-29T04:34:20.579Z,983.59
2019-01-29T04:35:31.558Z,983.61
2019-01-29T04:36:42.495Z,983.63
2019-01-29T04:37:53.452Z,983.63
2019-01-29T04:39:04.393Z,983.61
2019-01-29T04:40:15.335Z,983.65
2019-01-29T04:41:26.276Z,983.63
2019-01-29T04:42:37.216Z,983.69
2019-01-29T04:43:48.163Z,983.71
2019-01-29T04:44:59.095Z,983.77
2019-01-29T04:46:10.027Z,983.75
2019-01-29T04:47:20.966Z,983.78
2019-01-29T04:48:31.905Z,983.78
2019-01-29T04:49:42.846Z,983.79
2019-01-29T04:50:53.781Z,983.79
2019-01-29T04:52:04.718Z,983.85
2019-01-29T04:53:15.662Z,983.87
2019-01-29T04:54:26.613Z,983.90
2019-01-29T04:55:37.554Z,983.92
2019-01-29T04:56:48.502Z,983.95
2019-01-29T04:57:59.437Z,983.91
2019-01-29T04:59:10.371Z,983.89
2019-01-29T05:00:21.312Z,983.96
2019-01-29T05:01:32.240Z,983.97
2019-01-29T05:02:43.216Z,983.94
2019-01-29T05:03:54.155Z,983.95
2019-01-29T05:05:05.098Z,983.98
2019-01-29T05:06:16.044Z,983.95
2019-01-29T05:07:26.990Z,983.91
2019-01-29T05:08:37.925Z,983.92
2019-01-29T05:09:48.859Z,983.91
2019-01-29T05:10:59.799Z,983.87
2019-01-29T05:12:12.161Z,983.84
2019-01-29T05:14:32.621Z,983.84
2019-01-29T05:15:44.608Z,983.92
2019-01-29T05:16:56.618Z,983.92
2019-01-29T05:18:07.568Z,983.91
2019-01-29T05:19:18.504Z,983.93
2019-01-29T05:20:29.452Z,983.93
2019-01-29T05:21:40.390Z,983.94
2019-01-29T05:22:51.328Z,983.94
2019-01-29T05:24:06.994Z,983.97
2019-01-29T05:25:13.566Z,984.00
2019-01-29T05:26:24.509Z,983.94
2019-01-29T05:27:35.448Z,983.95
2019-01-29T05:28:46.415Z,983.99
2019-01-29T05:29:57.362Z,983.95
2019-01-29T05:31:08.292Z,983.91
2019-01-29T05:32:19.250Z,983.92
2019-01-29T05:33:30.205Z,983.91
2019-01-29T05:34:41.149Z,983.94
2019-01-29T05:35:52.090Z,983.93
2019-01-29T05:37:03.227Z,983.94
2019-01-29T05:38:14.168Z,983.93
2019-01-29T05:39:25.109Z,983.94
2019-01-29T05:40:36.051Z,983.96
2019-01-29T05:41:47.001Z,983.92
2019-01-29T05:42:58.146Z,983.95
2019-01-29T05:44:09.094Z,983.91
2019-01-29T05:45:20.017Z,983.93
2019-01-29T05:46:30.966Z,983.99
2019-01-29T05:47:42.011Z,983.98
2019-01-29T05:48:52.943Z,983.94
2019-01-29T05:50:03.912Z,983.93
2019-01-29T05:51:15.846Z,983.99
2019-01-29T05:52:26.795Z,983.90
2019-01-29T05:53:37.725Z,983.94
2019-01-29T05:54:48.683Z,983.92
2019-01-29T05:56:00.813Z,983.96
2019-01-29T05:57:11.744Z,983.95
2019-01-29T05:58:22.690Z,983.97
2019-01-29T05:59:33.635Z,983.96
2019-01-29T06:00:44.583Z,984.00
2019-01-29T06:01:55.525Z,983.98
2019-01-29T06:03:06.607Z,983.98
2019-01-29T06:04:17.557Z,984.01
2019-01-29T06:05:28.497Z,983.99
2019-01-29T06:06:39.457Z,983.97
2019-01-29T06:07:50.403Z,983.99
2019-01-29T06:09:02.349Z,984.01
2019-01-29T06:10:13.295Z,984.00
2019-01-29T06:11:24.234Z,984.06
2019-01-29T06:12:35.178Z,984.15
2019-01-29T06:13:47.128Z,984.13
2019-01-29T06:14:58.071Z,984.11
2019-01-29T06:16:09.008Z,984.11
2019-01-29T06:17:27.293Z,984.10
2019-01-29T06:18:31.201Z,984.11
2019-01-29T06:19:42.149Z,984.04
2019-01-29T06:20:53.093Z,983.99
2019-01-29T06:22:04.032Z,983.92
2019-01-29T06:23:14.982Z,983.88
2019-01-29T06:24:26.188Z,983.85
2019-01-29T06:25:39.215Z,983.81
2019-01-29T06:26:48.853Z,983.68
2019-01-29T06:27:59.822Z,983.66
2019-01-29T06:29:10.785Z,983.56
2019-01-29T06:30:21.928Z,983.49
2019-01-29T06:31:32.901Z,983.44
2019-01-29T06:32:43.868Z,983.25
2019-01-29T06:33:54.825Z,983.21
2019-01-29T06:35:05.787Z,983.13
2019-01-29T06:36:16.752Z,983.16
2019-01-29T06:37:27.715Z,983.11
2019-01-29T06:38:39.182Z,983.05
2019-01-29T06:39:50.154Z,983.07
2019-01-29T06:41:01.146Z,983.00
2019-01-29T06:42:12.121Z,983.00
2019-01-29T06:43:24.094Z,983.01
2019-01-29T06:44:35.076Z,982.99
2019-01-29T06:45:46.090Z,983.01
2019-01-29T06:46:57.060Z,983.05
2019-01-29T06:48:08.037Z,983.07
2019-01-29T06:49:19.017Z,983.09
2019-01-29T06:50:30.002Z,983.13
2019-01-29T06:51:40.979Z,983.17
2019-01-29T06:52:51.968Z,983.19
2019-01-29T06:54:02.954Z,983.21
2019-01-29T06:55:13.937Z,983.26
2019-01-29T06:56:25.013Z,983.29
2019-01-29T06:57:36.889Z,983.32
2019-01-29T06:58:48.319Z,983.35
2019-01-29T06:59:59.293Z,983.35
2019-01-29T07:01:10.282Z,983.40
2019-01-29T07:02:21.257Z,983.38
2019-01-29T07:03:32.234Z,983.42
2019-01-29T07:04:44.247Z,983.47
2019-01-29T07:05:55.216Z,983.55
2019-01-29T07:07:06.202Z,983.57
2019-01-29T07:08:17.183Z,983.56
2019-01-29T07:09:28.154Z,983.52
2019-01-29T07:10:39.128Z,983.48
2019-01-29T07:11:50.114Z,983.42
2019-01-29T07:13:01.101Z,983.31
2019-01-29T07:14:12.094Z,983.23
2019-01-29T07:15:23.072Z,983.15
2019-01-29T07:16:34.063Z,983.06
2019-01-29T07:17:45.045Z,983.01
2019-01-29T07:18:56.040Z,982.95
2019-01-29T07:20:07.021Z,982.96
2019-01-29T07:21:18.011Z,982.94
2019-01-29T07:22:29.003Z,982.93
2019-01-29T07:23:39.995Z,982.81
2019-01-29T07:24:51.918Z,982.68
2019-01-29T07:26:02.904Z,982.61
2019-01-29T07:27:13.901Z,982.51
2019-01-29T07:28:24.885Z,982.50
2019-01-29T07:29:35.878Z,982.48
2019-01-29T07:30:46.865Z,982.52
2019-01-29T07:31:57.857Z,982.52
2019-01-29T07:33:08.867Z,982.58
2019-01-29T07:34:19.856Z,982.58
2019-01-29T07:35:31.180Z,982.54
2019-01-29T07:36:42.154Z,982.58
2019-01-29T07:37:53.150Z,982.53
2019-01-29T07:39:04.946Z,982.55
2019-01-29T07:40:15.204Z,982.56
2019-01-29T07:41:26.148Z,982.57
2019-01-29T07:42:37.162Z,982.60
2019-01-29T07:43:48.154Z,982.52
2019-01-29T07:44:59.147Z,982.50
2019-01-29T07:46:10.173Z,982.52
2019-01-29T07:47:21.172Z,982.52
2019-01-29T07:48:32.187Z,982.50
2019-01-29T07:49:43.196Z,982.50
2019-01-29T07:50:54.199Z,982.51
2019-01-29T07:52:05.203Z,982.51
2019-01-29T07:53:17.219Z,982.53
2019-01-29T07:54:33.247Z,982.50
2019-01-29T07:55:39.227Z,982.49
2019-01-29T07:56:51.235Z,982.53
2019-01-29T07:58:02.647Z,982.57
2019-01-29T07:59:13.653Z,982.58
2019-01-29T08:00:24.660Z,982.61
2019-01-29T08:01:35.665Z,982.60
2019-01-29T08:02:46.679Z,982.61
2019-01-29T08:03:57.678Z,982.57
2019-01-29T08:05:08.696Z,982.60
2019-01-29T08:06:19.702Z,982.56
2019-01-29T08:07:30.714Z,982.63
2019-01-29T08:08:42.710Z,982.62
2019-01-29T08:09:53.719Z,982.54
2019-01-29T08:11:04.730Z,982.54
2019-01-29T08:12:16.737Z,982.55
2019-01-29T08:13:27.757Z,982.54
2019-01-29T08:14:38.766Z,982.49
2019-01-29T10:12:45.139Z,983.13
2019-01-29T10:18:45.895Z,984.31
2019-01-29T10:20:02.460Z,984.41
2019-01-29T10:21:08.055Z,984.11
2019-01-29T11:02:51.412Z,983.01
2019-01-29T11:04:02.612Z,983.02
2019-01-29T11:05:13.631Z,982.79
2019-01-29T11:06:24.652Z,982.58
2019-01-29T11:07:35.695Z,982.52
2019-01-29T11:08:46.676Z,982.40
2019-01-29T11:09:57.688Z,982.33
2019-01-29T11:11:08.699Z,982.22
2019-01-29T11:12:19.724Z,982.20
2019-01-29T11:13:30.734Z,982.13
2019-01-29T11:14:41.745Z,982.12
2019-01-29T11:15:52.760Z,982.15
2019-01-29T11:17:03.783Z,982.10
2019-01-29T11:18:14.787Z,982.08
2019-01-29T11:19:25.794Z,982.04
2019-01-29T11:20:36.795Z,981.99
2019-01-29T11:21:48.802Z,982.01
2019-01-29T11:22:59.804Z,981.98
2019-01-29T11:24:10.805Z,981.96
2019-01-29T11:25:21.805Z,981.92
2019-01-29T11:26:32.824Z,981.91
2019-01-29T11:27:44.286Z,981.87
2019-01-29T11:28:55.290Z,981.88
2019-01-29T11:30:07.289Z,981.86
2019-01-29T11:31:18.311Z,981.83
2019-01-29T11:32:29.322Z,981.82
2019-01-29T11:33:40.358Z,981.80
2019-01-29T11:34:51.334Z,981.76
2019-01-29T11:36:03.345Z,981.79
2019-01-29T11:37:14.348Z,981.80
2019-01-29T11:38:25.351Z,981.84
2019-01-29T11:39:36.357Z,981.79
2019-01-29T11:40:47.363Z,981.82
2019-01-29T11:41:58.372Z,981.71
2019-01-29T11:43:09.388Z,981.73
2019-01-29T11:44:20.400Z,981.71
2019-01-29T11:45:31.429Z,981.69
2019-01-29T11:46:42.461Z,981.66
2019-01-29T11:47:53.467Z,981.66
2019-01-29T11:49:04.615Z,981.62
2019-01-29T11:50:15.627Z,981.58
2019-01-29T11:51:26.648Z,981.56
2019-01-29T11:52:37.656Z,981.55
2019-01-29T11:53:48.678Z,981.51
2019-01-29T11:54:59.695Z,981.44
2019-01-29T11:56:10.708Z,981.41
2019-01-29T11:57:21.733Z,981.34
2019-01-29T11:58:32.739Z,981.35
2019-01-29T11:59:43.759Z,981.32
2019-01-29T12:00:54.768Z,981.30
2019-01-29T12:02:05.789Z,981.27
2019-01-29T12:03:16.802Z,981.26
2019-01-29T12:04:27.820Z,981.20
2019-01-29T12:05:38.926Z,981.22
2019-01-29T12:06:49.955Z,981.18
2019-01-29T12:08:00.963Z,981.14
2019-01-29T12:09:11.986Z,981.13
2019-01-29T12:10:23.001Z,981.14
2019-01-29T12:11:34.014Z,981.13
2019-01-29T12:12:45.023Z,981.14
2019-01-29T12:13:56.047Z,981.09
2019-01-29T12:15:07.062Z,981.08
2019-01-29T12:16:19.533Z,981.06
2019-01-29T12:17:29.107Z,981.08
2019-01-29T12:18:40.121Z,981.05
2019-01-29T12:19:51.134Z,981.06
2019-01-29T12:21:02.144Z,981.02
2019-01-29T12:22:13.164Z,980.99
2019-01-29T12:23:24.179Z,980.96
2019-01-29T12:24:35.197Z,981.00
2019-01-29T12:25:46.213Z,980.96
2019-01-29T12:26:57.223Z,980.95
2019-01-29T12:28:08.232Z,980.93
2019-01-29T12:29:19.241Z,980.91
2019-01-29T12:30:30.257Z,980.89
2019-01-29T12:31:41.267Z,980.88
2019-01-29T12:32:52.286Z,980.89
2019-01-29T12:34:03.312Z,980.88
2019-01-29T12:35:14.320Z,980.85
2019-01-29T12:36:25.321Z,980.86
2019-01-29T12:37:36.340Z,980.88
2019-01-29T12:38:47.348Z,980.87
2019-01-29T12:39:58.361Z,980.89
2019-01-29T12:41:09.359Z,980.89
2019-01-29T12:42:20.370Z,980.90
2019-01-29T12:43:31.371Z,980.87
2019-01-29T12:44:42.393Z,980.84
2019-01-29T12:45:53.403Z,980.83
2019-01-29T12:47:04.416Z,980.81
2019-01-29T12:48:15.439Z,980.83
2019-01-29T12:49:26.453Z,980.83
2019-01-29T12:50:37.454Z,980.78
2019-01-29T12:51:48.601Z,980.81
2019-01-29T12:52:59.608Z,980.78
2019-01-29T12:54:10.610Z,980.77
2019-01-29T12:55:21.747Z,980.74
2019-01-29T12:56:32.716Z,980.74
2019-01-29T12:57:43.719Z,980.76
2019-01-29T12:58:54.724Z,980.77
2019-01-29T13:00:06.029Z,980.74
2019-01-29T13:01:17.024Z,980.72
2019-01-29T13:02:28.031Z,980.71
2019-01-29T13:03:39.041Z,980.71
2019-01-29T13:04:50.048Z,980.68
2019-01-29T13:06:01.367Z,980.64
2019-01-29T13:07:12.367Z,980.67
2019-01-29T13:08:24.378Z,980.65
2019-01-29T13:09:35.375Z,980.57
2019-01-29T13:10:46.370Z,980.59
2019-01-29T13:11:57.376Z,980.53
2019-01-29T13:13:08.411Z,980.54
2019-01-29T13:14:19.408Z,980.51
2019-01-29T13:15:30.426Z,980.52
2019-01-29T13:16:41.431Z,980.52
2019-01-29T13:17:52.458Z,980.52
2019-01-29T13:19:03.475Z,980.50
2019-01-29T13:20:14.633Z,980.49
2019-01-29T13:21:25.661Z,980.53
2019-01-29T13:22:36.687Z,980.51
2019-01-29T13:23:47.682Z,980.49
2019-01-29T13:24:58.691Z,980.47
2019-01-29T13:26:09.710Z,980.43
2019-01-29T13:27:20.724Z,980.41
2019-01-29T13:28:31.732Z,980.42
2019-01-29T13:29:42.756Z,980.39
2019-01-29T13:30:53.864Z,980.37
2019-01-29T13:32:04.789Z,980.34
2019-01-29T13:33:15.803Z,980.36
2019-01-29T13:34:26.810Z,980.34
2019-01-29T13:35:38.126Z,980.36
2019-01-29T13:36:49.132Z,980.30
2019-01-29T13:38:01.139Z,980.27
2019-01-29T13:39:12.146Z,980.26
2019-01-29T13:40:23.168Z,980.22
2019-01-29T13:41:34.176Z,980.16
2019-01-29T13:42:45.189Z,980.18
2019-01-29T13:43:56.212Z,980.15
2019-01-29T13:45:07.228Z,980.12
2019-01-29T13:46:18.294Z,980.05
2019-01-29T13:47:29.325Z,980.01
2019-01-29T13:48:40.341Z,980.01
2019-01-29T13:49:51.379Z,979.94
2019-01-29T13:51:02.405Z,979.86
2019-01-29T13:52:13.426Z,979.87
2019-01-29T13:53:24.605Z,979.82
2019-01-29T13:54:35.634Z,979.81
2019-01-29T13:55:46.662Z,979.78
2019-01-29T13:56:57.691Z,979.71
2019-01-29T13:58:08.720Z,979.68
2019-01-29T13:59:20.752Z,979.65
2019-01-29T14:00:31.774Z,979.61
2019-01-29T14:01:42.805Z,979.59
2019-01-29T14:02:53.839Z,979.55
2019-01-29T14:04:06.357Z,979.54
2019-01-29T14:05:15.886Z,979.42
2019-01-29T14:06:26.949Z,979.40
2019-01-29T14:07:37.978Z,979.39
2019-01-29T14:08:49.006Z,979.35
2019-01-29T14:10:00.095Z,979.36
2019-01-29T14:11:11.107Z,979.35
2019-01-29T14:12:22.121Z,979.40
2019-01-29T14:13:33.141Z,979.29
2019-01-29T14:14:44.155Z,979.35
2019-01-29T14:15:55.186Z,979.27
2019-01-29T14:17:06.223Z,979.31
2019-01-29T14:18:17.259Z,979.29
2019-01-29T14:19:28.279Z,979.33
2019-01-29T14:20:39.300Z,979.36
2019-01-29T14:21:50.315Z,979.32
2019-01-29T14:23:01.338Z,979.32
2019-01-29T14:24:12.346Z,979.33
2019-01-29T14:25:23.380Z,979.35
2019-01-29T14:26:34.704Z,979.33
2019-01-29T14:27:45.732Z,979.28
2019-01-29T14:28:56.752Z,979.30
2019-01-29T14:30:07.798Z,979.34
2019-01-29T14:31:18.788Z,979.40
2019-01-29T14:32:29.803Z,979.38
2019-01-29T14:33:40.818Z,979.36
2019-01-29T14:34:51.832Z,979.34
2019-01-29T14:36:02.840Z,979.33
2019-01-29T14:37:13.854Z,979.33
2019-01-29T14:38:24.881Z,979.32
2019-01-29T14:39:35.892Z,979.34
2019-01-29T14:40:46.899Z,979.30
2019-01-29T14:41:57.911Z,979.31
2019-01-29T14:43:08.919Z,979.32
2019-01-29T14:44:19.920Z,979.30
2019-01-29T14:45:30.921Z,979.29
2019-01-29T14:46:41.926Z,979.31
2019-01-29T14:47:52.914Z,979.33
2019-01-29T14:49:03.915Z,979.33
2019-01-29T14:50:14.931Z,979.37
2019-01-29T14:51:25.932Z,979.40
2019-01-29T14:52:36.954Z,979.43
2019-01-29T14:53:47.960Z,979.46
2019-01-29T14:54:58.956Z,979.46
2019-01-29T14:56:09.990Z,979.50
2019-01-29T14:57:20.986Z,979.43
2019-01-29T14:58:31.992Z,979.44
2019-01-29T14:59:42.998Z,979.42
2019-01-29T15:00:53.996Z,979.39
2019-01-29T15:02:04.995Z,979.42
2019-01-29T15:03:15.989Z,979.36
2019-01-29T15:04:27.019Z,979.37
2019-01-29T15:05:38.021Z,979.36
2019-01-29T15:06:49.050Z,979.30
2019-01-29T15:08:00.047Z,979.27
2019-01-29T15:09:11.061Z,979.24
2019-01-29T15:10:22.073Z,979.25
2019-01-29T15:11:33.424Z,979.20
2019-01-29T15:12:44.639Z,979.20
2019-01-29T15:13:55.859Z,979.21
2019-01-29T15:15:06.874Z,979.14
2019-01-29T15:16:18.066Z,979.13
2019-01-29T15:17:29.084Z,979.08
2019-01-29T15:18:40.105Z,979.09
2019-01-29T15:19:51.094Z,979.04
2019-01-29T15:21:02.116Z,979.03
2019-01-29T15:22:13.110Z,979.00
2019-01-29T15:23:24.116Z,978.97
2019-01-29T15:24:35.138Z,978.99
2019-01-29T15:25:46.140Z,978.97
2019-01-29T15:27:05.084Z,978.98
2019-01-29T15:28:08.166Z,978.93
2019-01-29T15:29:19.175Z,978.95
2019-01-29T15:30:30.184Z,978.94
2019-01-29T15:31:41.186Z,978.94
2019-01-29T15:32:52.192Z,978.90
2019-01-29T15:34:03.207Z,978.89
2019-01-29T15:35:14.220Z,978.88
2019-01-29T15:36:25.227Z,978.85
2019-01-29T15:37:36.233Z,978.89
2019-01-29T15:38:47.246Z,978.87
2019-01-29T15:39:58.256Z,978.89
2019-01-29T15:41:09.256Z,978.89
2019-01-29T15:42:20.264Z,978.93
2019-01-29T15:43:31.285Z,978.89
2019-01-29T15:44:42.293Z,978.88
2019-01-29T15:45:53.304Z,978.87
2019-01-29T15:47:04.316Z,978.85
2019-01-29T15:49:26.380Z,978.85
2019-01-29T15:50:37.380Z,978.85
2019-01-29T15:51:48.381Z,978.84
2019-01-29T15:52:59.396Z,978.79
2019-01-29T15:54:10.405Z,978.79
2019-01-29T15:55:21.432Z,978.74
2019-01-29T15:56:32.458Z,978.72
2019-01-29T15:57:43.454Z,978.64
2019-01-29T15:58:54.621Z,978.61
2019-01-29T16:00:05.639Z,978.61
2019-01-29T16:01:16.669Z,978.62
2019-01-29T16:02:27.681Z,978.57
2019-01-29T16:03:38.705Z,978.53
2019-01-29T16:04:49.713Z,978.46
2019-01-29T16:06:00.727Z,978.44
2019-01-29T16:07:11.744Z,978.42
2019-01-29T16:08:22.761Z,978.39
2019-01-29T16:09:33.769Z,978.38
2019-01-29T16:10:44.792Z,978.33
2019-01-29T16:11:55.815Z,978.32
2019-01-29T16:13:06.825Z,978.30
2019-01-29T16:14:17.873Z,978.27
2019-01-29T16:15:28.954Z,978.26
2019-01-29T16:16:39.912Z,978.31
2019-01-29T16:17:50.921Z,978.28
2019-01-29T16:19:01.940Z,978.27
2019-01-29T16:20:13.027Z,978.24
2019-01-29T16:21:25.034Z,978.22
2019-01-29T16:22:36.054Z,978.21
2019-01-29T16:23:47.070Z,978.17
2019-01-29T16:24:58.078Z,978.16
2019-01-29T16:26:09.110Z,978.19
